Time;durP1;ratioP1;P1;durP2;ratioP2;P2;SDS_P1;SDS_P2;PMS_P1;PMS_P2;Temp;Humidity;BMP_temperature;BMP_pressure;BME280_temperature;BME280_humidity;BME280_pressure;Samples;Min_cycle;Max_cycle;Signal;HPM_P1;HPM_P2
2022/02/11 00:00:50;;;;;;;5.95;2.03;;;;;;;18.69;46.86;102170.00;5113559;28;20028;-63
2022/02/11 00:08:34;;;;;;;6.65;2.05;;;;;;;18.61;46.93;102159.09;5096975;28;20097;-63
2022/02/11 00:10:59;;;;;;;5.13;2.08;;;;;;;18.58;46.64;102162.78;5112345;28;20039;-63
2022/02/11 00:13:25;;;;;;;5.15;1.90;;;;;;;18.56;46.44;102162.00;5112740;28;20016;-63
2022/02/11 00:15:53;;;;;;;5.07;1.95;;;;;;;18.54;46.67;102166.56;5113244;28;20024;-63
2022/02/11 00:18:20;;;;;;;5.75;2.05;;;;;;;18.53;46.80;102170.13;5112135;28;20088;-63
2022/02/11 00:20:48;;;;;;;5.07;2.08;;;;;;;18.50;46.70;102157.13;5113130;28;20070;-63
2022/02/11 00:23:14;;;;;;;5.97;2.13;;;;;;;18.44;46.91;102163.63;5112057;28;20463;-63
2022/02/11 00:25:47;;;;;;;6.18;1.95;;;;;;;18.45;46.74;102164.47;5113027;28;20034;-63
2022/02/11 00:29:04;;;;;;;6.40;2.20;;;;;;;18.43;46.80;102158.44;5112932;28;20020;-63
2022/02/11 00:33:45;;;;;;;6.32;1.90;;;;;;;18.38;46.92;102153.44;5113157;28;20074;-63
2022/02/11 00:36:13;;;;;;;6.85;2.13;;;;;;;18.38;46.98;102158.72;5112639;28;20048;-63
2022/02/11 01:05:50;;;;;;;7.93;2.35;;;;;;;18.17;46.75;102152.16;5115163;27;20020;-62
2022/02/11 01:08:15;;;;;;;6.05;2.03;;;;;;;18.15;46.94;102148.72;5112356;28;20016;-62
2022/02/11 01:10:40;;;;;;;7.47;2.20;;;;;;;18.11;46.40;102151.56;5112532;28;20020;-63
2022/02/11 01:13:06;;;;;;;6.22;2.15;;;;;;;18.10;46.50;102144.59;5112219;28;20031;-62
2022/02/11 01:15:35;;;;;;;5.80;2.03;;;;;;;18.09;46.21;102158.72;5112777;28;20063;-62
2022/02/11 01:18:03;;;;;;;6.55;2.42;;;;;;;18.08;46.41;102159.66;5112729;28;20035;-62
2022/02/11 01:23:26;;;;;;;6.72;2.13;;;;;;;18.06;46.16;102158.06;5112295;28;20032;-62
2022/02/11 01:31:46;;;;;;;5.47;2.07;;;;;;;17.97;46.17;102153.34;5112622;28;20054;-62
2022/02/11 01:35:08;;;;;;;4.68;2.03;;;;;;;17.98;46.45;102161.16;5111293;28;20288;-63
2022/02/11 01:37:21;;;;;;;5.10;1.90;;;;;;;17.97;46.38;102167.38;5101045;28;20032;-63
2022/02/11 01:45:43;;;;;;;5.25;1.67;;;;;;;17.91;46.15;102165.97;5112502;28;20039;-61
2022/02/11 01:56:03;;;;;;;6.77;2.20;;;;;;;17.86;46.39;102159.22;5115416;28;20080;-62
2022/02/11 02:24:52;;;;;;;5.10;1.90;;;;;;;17.72;46.29;102160.03;5071737;28;20094;-63
2022/02/11 02:27:36;;;;;;;5.78;2.20;;;;;;;17.71;46.12;102156.53;5112493;28;20036;-63
2022/02/11 02:33:18;;;;;;;5.75;1.80;;;;;;;17.68;45.80;102156.72;5119294;27;20286;-62
2022/02/11 02:57:23;;;;;;;5.60;1.90;;;;;;;17.85;45.58;102175.97;5114840;28;20030;-63
2022/02/11 03:35:02;;;;;;;6.47;2.10;;;;;;;17.84;46.28;102176.91;5113487;28;20063;-63
2022/02/11 04:27:35;;;;;;;6.75;1.60;;;;;;;17.83;45.60;102244.66;5113439;28;20047;-63
2022/02/11 04:56:33;;;;;;;6.70;1.57;;;;;;;17.86;45.49;102320.09;5112450;28;20709;-63
2022/02/11 05:01:43;;;;;;;7.97;1.50;;;;;;;17.84;45.71;102321.97;5112946;28;20101;-63
2022/02/11 05:04:08;;;;;;;5.13;1.65;;;;;;;17.82;45.29;102322.06;5112677;28;20107;-62
2022/02/11 05:06:33;;;;;;;4.60;1.33;;;;;;;17.84;45.38;102333.34;5112103;28;20107;-62
2022/02/11 05:09:02;;;;;;;6.60;2.30;;;;;;;17.84;45.94;102335.16;5112881;28;20451;-62
2022/02/11 05:11:34;;;;;;;7.65;1.55;;;;;;;17.85;45.47;102340.34;5111622;28;20319;-62
2022/02/11 05:13:59;;;;;;;6.25;1.48;;;;;;;17.86;45.82;102335.91;5112586;28;20023;-62
2022/02/11 05:16:25;;;;;;;5.57;1.33;;;;;;;17.88;45.69;102340.22;5112357;28;20016;-63
2022/02/11 05:18:50;;;;;;;7.68;1.50;;;;;;;17.88;45.84;102350.75;5111926;28;20061;-62
2022/02/11 05:21:16;;;;;;;7.40;1.65;;;;;;;17.88;45.45;102353.41;5113845;28;20016;-62
2022/02/11 05:23:41;;;;;;;7.10;1.70;;;;;;;17.89;45.66;102356.88;5116634;27;20015;-63
2022/02/11 05:26:06;;;;;;;8.25;1.67;;;;;;;17.90;45.20;102362.06;5115622;28;20019;-62
2022/02/11 05:28:32;;;;;;;7.82;1.63;;;;;;;17.91;45.41;102368.19;5116469;28;20498;-62
2022/02/11 05:30:57;;;;;;;8.43;1.60;;;;;;;17.91;45.25;102368.19;5116398;28;20483;-62
2022/02/11 05:33:24;;;;;;;7.27;1.67;;;;;;;17.89;45.42;102363.00;5115315;28;20022;-62
2022/02/11 05:35:49;;;;;;;6.90;1.77;;;;;;;17.90;45.02;102375.25;5116218;28;20624;-63
2022/02/11 05:38:15;;;;;;;6.80;1.52;;;;;;;17.89;45.49;102392.00;5115736;28;20047;-62
2022/02/11 05:40:40;;;;;;;6.00;1.55;;;;;;;17.88;45.24;102400.00;5115457;28;20024;-62
2022/02/11 05:43:05;;;;;;;8.25;1.90;;;;;;;17.88;45.32;102405.28;5116251;28;20119;-62
2022/02/11 05:45:31;;;;;;;6.50;1.52;;;;;;;17.87;45.79;102412.31;5115593;28;20020;-62
2022/02/11 05:47:57;;;;;;;8.65;1.83;;;;;;;17.89;45.87;102406.97;5115261;28;20020;-62
2022/02/11 05:50:22;;;;;;;6.63;1.48;;;;;;;17.90;46.05;102419.25;5115728;28;20103;-62
2022/02/11 05:52:47;;;;;;;6.22;1.63;;;;;;;17.90;46.30;102429.78;5116190;28;20019;-62
2022/02/11 05:55:13;;;;;;;6.03;1.83;;;;;;;17.92;46.00;102433.19;5114982;28;20467;-62
2022/02/11 05:57:38;;;;;;;5.53;1.60;;;;;;;17.92;45.92;102433.19;5115830;28;20096;-62
2022/02/11 06:00:04;;;;;;;5.40;1.42;;;;;;;17.94;45.75;102436.59;5115660;28;20428;-62
2022/02/11 06:02:29;;;;;;;6.28;1.35;;;;;;;17.93;45.57;102440.19;5114522;28;20031;-62
2022/02/11 06:04:55;;;;;;;4.93;1.40;;;;;;;17.93;45.82;102437.53;5115891;28;20024;-62
2022/02/11 06:07:22;;;;;;;6.37;1.57;;;;;;;17.95;46.20;102440.94;5115490;28;20486;-62
2022/02/11 06:09:48;;;;;;;7.07;1.58;;;;;;;17.97;46.27;102444.34;5114984;28;20283;-62
2022/02/11 06:12:19;;;;;;;7.93;1.90;;;;;;;18.00;47.15;102451.25;5115346;28;20043;-62
2022/02/11 06:14:45;;;;;;;8.18;1.88;;;;;;;18.03;47.43;102453.72;5114179;28;20275;-62
2022/02/11 06:17:10;;;;;;;8.27;2.25;;;;;;;18.03;45.06;102456.34;5115381;28;20490;-62
2022/02/11 06:19:35;;;;;;;10.70;1.75;;;;;;;18.00;47.41;102457.34;5115390;28;20024;-62
2022/02/11 06:22:01;;;;;;;6.28;1.83;;;;;;;18.07;47.87;102463.13;5114524;28;20131;-62
2022/02/11 06:24:26;;;;;;;7.53;1.70;;;;;;;18.11;48.12;102468.16;5114944;28;20039;-63
2022/02/11 06:26:51;;;;;;;8.30;2.00;;;;;;;18.15;48.30;102475.91;5115409;28;20846;-62
2022/02/11 06:29:16;;;;;;;7.80;1.70;;;;;;;18.20;48.50;102476.50;5114106;28;20287;-62
2022/02/11 06:31:42;;;;;;;6.83;1.80;;;;;;;18.22;48.45;102485.19;5114974;28;20531;-62
2022/02/11 06:34:07;;;;;;;8.77;1.63;;;;;;;18.26;48.26;102492.00;5115036;28;20309;-62
2022/02/11 06:36:33;;;;;;;7.13;2.22;;;;;;;18.28;48.14;102495.41;5114264;28;20505;-62
2022/02/11 06:38:59;;;;;;;6.78;1.95;;;;;;;18.30;48.42;102502.28;5114848;27;20481;-62
2022/02/11 06:41:24;;;;;;;7.00;1.90;;;;;;;18.34;48.30;102507.41;5114479;28;20027;-62
2022/02/11 06:43:50;;;;;;;9.48;1.63;;;;;;;18.36;48.47;102510.78;5113967;28;20455;-62
2022/02/11 06:46:17;;;;;;;7.75;1.73;;;;;;;18.37;48.36;102504.59;5114723;28;20069;-62
2022/02/11 06:48:42;;;;;;;7.70;1.80;;;;;;;18.38;48.52;102520.34;5114730;28;20438;-61
2022/02/11 06:51:08;;;;;;;6.75;1.50;;;;;;;18.41;48.85;102530.72;5113927;28;20024;-63
2022/02/11 06:53:36;;;;;;;9.43;1.73;;;;;;;18.43;48.56;102525.38;5114807;28;20035;-62
2022/02/11 06:56:03;;;;;;;6.30;1.67;;;;;;;18.46;48.25;102533.97;5114669;28;20632;-63
2022/02/11 06:58:31;;;;;;;7.60;1.75;;;;;;;18.46;43.17;102549.78;5113262;28;20036;-63
2022/02/11 07:00:56;;;;;;;7.80;2.55;;;;;;;18.44;46.72;102556.97;5114529;28;20455;-62
2022/02/11 07:03:23;;;;;;;8.27;2.10;;;;;;;18.46;47.84;102562.16;5114199;28;20038;-63
2022/02/11 07:05:51;;;;;;;8.25;1.80;;;;;;;18.47;48.18;102577.91;5113913;28;20027;-63
2022/02/11 07:08:16;;;;;;;9.73;2.10;;;;;;;18.49;47.99;102586.59;5114240;27;20054;-63
2022/02/11 07:10:42;;;;;;;7.82;1.80;;;;;;;18.53;48.29;102589.06;5114303;28;20054;-63
2022/02/11 07:13:13;;;;;;;6.93;1.70;;;;;;;18.52;46.88;102598.78;5113123;28;20159;-63
2022/02/11 07:15:38;;;;;;;9.35;2.20;;;;;;;18.54;47.87;102604.81;5114078;28;20061;-63
2022/02/11 07:18:03;;;;;;;9.02;2.38;;;;;;;18.56;48.27;102602.09;5113582;28;20043;-63
2022/02/11 07:20:32;;;;;;;8.57;1.58;;;;;;;18.57;48.13;102615.22;5113907;28;20051;-63
2022/02/11 07:22:57;;;;;;;9.00;1.80;;;;;;;18.59;48.21;102623.91;5114260;28;20352;-64
2022/02/11 07:25:22;;;;;;;7.00;1.63;;;;;;;18.62;48.36;102629.00;5112960;28;20490;-63
2022/02/11 07:27:48;;;;;;;6.90;1.50;;;;;;;18.63;48.42;102638.66;5114049;28;20284;-63
2022/02/11 07:30:13;;;;;;;10.90;1.92;;;;;;;18.64;48.21;102643.00;5113915;28;20047;-63
2022/02/11 07:32:38;;;;;;;4.27;1.20;;;;;;;18.66;48.54;102646.41;5113233;28;20028;-63
2022/02/11 07:35:04;;;;;;;8.40;1.90;;;;;;;18.65;48.47;102647.31;5114188;28;20328;-63
2022/02/11 07:37:32;;;;;;;8.38;1.77;;;;;;;18.66;47.99;102654.31;5113711;28;20321;-63
2022/02/11 07:39:58;;;;;;;10.13;1.88;;;;;;;18.69;48.17;102663.84;5112950;28;20442;-63
2022/02/11 07:42:25;;;;;;;12.55;2.17;;;;;;;18.65;48.51;102660.53;5113394;28;20434;-64
2022/02/11 07:44:51;;;;;;;7.20;1.60;;;;;;;18.70;48.18;102662.09;5113240;28;20032;-64
2022/02/11 07:47:16;;;;;;;8.13;1.90;;;;;;;18.71;48.18;102667.28;5112928;28;20024;-62
2022/02/11 07:49:42;;;;;;;7.00;1.67;;;;;;;18.73;48.51;102664.56;5113775;28;20023;-64
2022/02/11 07:52:07;;;;;;;6.90;1.50;;;;;;;18.74;48.55;102677.69;5113546;28;20024;-62
2022/02/11 07:54:32;;;;;;;7.85;2.03;;;;;;;18.76;49.14;102686.34;5112946;27;20031;-63
2022/02/11 07:56:58;;;;;;;11.45;2.15;;;;;;;18.75;48.71;102697.84;5113351;28;20034;-63
2022/02/11 07:59:23;;;;;;;7.13;1.45;;;;;;;18.77;48.83;102721.53;5113136;28;20023;-63
2022/02/11 08:01:49;;;;;;;7.38;1.70;;;;;;;18.76;48.75;102728.63;5112960;28;20062;-63
2022/02/11 08:04:14;;;;;;;8.98;1.50;;;;;;;18.78;48.88;102734.66;5113213;28;20475;-63
2022/02/11 08:06:43;;;;;;;9.85;2.10;;;;;;;18.78;48.53;102742.59;5113434;28;20024;-63
2022/02/11 08:09:08;;;;;;;9.82;1.67;;;;;;;18.78;49.10;102754.94;5112268;28;20081;-63
2022/02/11 08:11:33;;;;;;;9.18;1.75;;;;;;;18.78;49.24;102757.59;5113045;28;20103;-63
2022/02/11 08:13:59;;;;;;;8.53;2.30;;;;;;;18.79;48.94;102762.78;5113492;28;20034;-63
2022/02/11 08:16:24;;;;;;;7.40;1.80;;;;;;;18.79;49.08;102773.34;5112231;28;20287;-63
2022/02/11 08:18:50;;;;;;;7.25;1.95;;;;;;;18.80;48.93;102785.66;5113248;28;20107;-63
2022/02/11 08:21:16;;;;;;;8.30;1.63;;;;;;;18.80;48.73;102801.50;5112205;28;20107;-63
2022/02/11 08:23:41;;;;;;;5.70;1.55;;;;;;;18.82;49.12;102796.13;5113187;28;20020;-63
2022/02/11 08:26:08;;;;;;;9.55;2.00;;;;;;;18.82;49.29;102806.69;5112861;28;20023;-62
2022/02/11 08:28:42;;;;;;;9.75;1.67;;;;;;;18.81;49.31;102808.47;5112272;28;20064;-63
2022/02/11 08:31:08;;;;;;;5.40;1.33;;;;;;;18.81;48.94;102813.75;5112857;28;20055;-63
2022/02/11 08:33:33;;;;;;;9.32;2.25;;;;;;;18.83;49.09;102818.94;5113141;28;20055;-63
2022/02/11 08:35:59;;;;;;;6.18;1.30;;;;;;;18.82;49.16;102815.47;5112348;28;20098;-63
2022/02/11 08:38:27;;;;;;;6.07;1.92;;;;;;;18.82;48.67;102825.19;5112382;28;20043;-63
2022/02/11 08:40:53;;;;;;;5.20;1.20;;;;;;;18.87;48.41;102820.53;5113564;28;20051;-65
2022/02/11 08:43:21;;;;;;;9.93;1.95;;;;;;;18.96;48.75;102838.53;5112337;28;20513;-65
2022/02/11 08:45:47;;;;;;;7.72;1.90;;;;;;;19.09;48.12;102838.75;5113566;28;20110;-65
2022/02/11 08:48:19;;;;;;;4.68;1.30;;;;;;;19.20;47.92;102846.06;5113090;28;20047;-65
2022/02/11 08:50:44;;;;;;;7.82;1.50;;;;;;;19.29;47.67;102858.78;5112605;28;20104;-66
2022/02/11 08:53:10;;;;;;;7.43;1.50;;;;;;;19.39;47.67;102856.47;5112634;28;20057;-66
2022/02/11 08:55:36;;;;;;;7.35;1.63;;;;;;;19.46;47.73;102857.03;5115000;28;20383;-64
2022/02/11 08:58:05;;;;;;;8.75;2.00;;;;;;;19.51;47.66;102869.03;5116409;28;20032;-64
2022/02/11 09:00:31;;;;;;;6.63;1.60;;;;;;;19.56;47.18;102871.44;5116597;28;20474;-67
2022/02/11 09:02:57;;;;;;;7.25;1.70;;;;;;;19.52;45.64;102868.09;5117050;28;20026;-67
2022/02/11 09:05:24;;;;;;;7.63;1.40;;;;;;;19.54;46.71;102875.97;5115789;28;20107;-66
2022/02/11 09:08:01;;;;;;;6.47;1.60;;;;;;;19.57;46.56;102874.00;5116996;28;20023;-64
2022/02/11 09:10:28;;;;;;;8.27;1.70;;;;;;;19.58;46.05;102870.41;5116875;28;20020;-65
2022/02/11 09:12:55;;;;;;;5.35;1.40;;;;;;;19.62;46.61;102872.88;5117045;28;20035;-64
2022/02/11 09:15:21;;;;;;;7.25;1.60;;;;;;;19.64;46.35;102873.66;5116351;28;20024;-64
2022/02/11 09:17:50;;;;;;;10.13;1.70;;;;;;;19.68;46.59;102878.69;5115943;28;20015;-64
2022/02/11 09:20:17;;;;;;;7.55;1.80;;;;;;;19.73;46.38;102887.22;5116151;28;20150;-63
2022/02/11 09:22:43;;;;;;;8.30;1.73;;;;;;;19.73;46.16;102884.56;5116751;28;20043;-64
2022/02/11 09:25:09;;;;;;;6.80;1.60;;;;;;;19.65;45.38;102875.38;5115443;28;20050;-64
2022/02/11 09:27:41;;;;;;;7.70;1.50;;;;;;;19.58;45.56;102883.63;5116323;28;20043;-63
2022/02/11 09:30:06;;;;;;;6.43;1.48;;;;;;;19.53;45.63;102903.34;5116324;28;20052;-63
2022/02/11 09:32:34;;;;;;;6.00;1.63;;;;;;;19.46;46.15;102891.41;5115398;28;20047;-63
2022/02/11 09:34:59;;;;;;;9.73;1.55;;;;;;;19.38;46.86;102889.16;5116582;28;20039;-64
2022/02/11 09:37:25;;;;;;;6.50;1.92;;;;;;;19.34;47.28;102906.13;5116006;28;20371;-63
2022/02/11 09:39:51;;;;;;;7.78;2.17;;;;;;;19.28;47.27;102903.81;5115295;28;20043;-64
2022/02/11 09:42:17;;;;;;;6.15;1.50;;;;;;;19.25;46.97;102919.84;5116028;28;20494;-64
2022/02/11 09:44:45;;;;;;;7.93;1.40;;;;;;;19.21;47.20;102922.63;5116096;28;20028;-64
2022/02/11 09:47:10;;;;;;;7.75;1.70;;;;;;;19.18;47.42;102943.09;5114980;28;20044;-64
2022/02/11 09:49:35;;;;;;;7.57;1.70;;;;;;;19.17;47.25;102936.97;5116209;27;20027;-64
2022/02/11 09:52:03;;;;;;;6.63;1.38;;;;;;;19.15;47.29;102935.31;5116219;28;20020;-64
2022/02/11 09:54:29;;;;;;;5.68;1.75;;;;;;;19.12;47.09;102939.00;5114977;27;20368;-64
2022/02/11 09:56:54;;;;;;;9.32;1.85;;;;;;;19.12;47.53;102938.13;5116042;27;20069;-64
2022/02/11 09:59:20;;;;;;;8.85;1.70;;;;;;;19.10;47.58;102942.66;5115357;28;20039;-64
2022/02/11 10:01:47;;;;;;;7.43;1.58;;;;;;;19.08;47.92;102942.72;5114976;28;20103;-63
2022/02/11 10:04:16;;;;;;;7.07;1.70;;;;;;;19.06;47.47;102936.69;5115690;28;20023;-64
2022/02/11 10:06:41;;;;;;;7.75;1.65;;;;;;;19.03;47.44;102936.84;5115203;28;20023;-64
2022/02/11 10:09:07;;;;;;;8.25;1.98;;;;;;;19.04;47.17;102949.09;5114969;28;20122;-65
2022/02/11 10:11:33;;;;;;;8.50;1.67;;;;;;;19.04;46.93;102957.03;5115631;28;20027;-65
2022/02/11 10:14:21;;;;;;;9.90;1.90;;;;;;;19.02;46.98;102958.91;5114991;28;20098;-65
2022/02/11 10:16:58;;;;;;;7.72;1.80;;;;;;;19.00;46.43;102964.25;5115689;28;20044;-65
2022/02/11 10:19:44;;;;;;;7.88;1.52;;;;;;;19.01;46.63;102967.78;5115065;28;20483;-65
2022/02/11 10:22:26;;;;;;;6.38;1.80;;;;;;;18.99;46.58;102967.84;5114567;27;20035;-64
2022/02/11 10:24:54;;;;;;;7.30;1.63;;;;;;;18.98;47.29;102973.22;5115403;28;20050;-65
2022/02/11 10:27:30;;;;;;;7.53;2.03;;;;;;;18.96;47.31;102978.59;5115256;28;20118;-64
2022/02/11 10:30:02;;;;;;;8.82;1.70;;;;;;;18.97;46.98;102982.06;5114763;28;20027;-65
2022/02/11 10:32:38;;;;;;;8.02;1.83;;;;;;;18.95;47.42;102990.06;5114794;28;20032;-64
2022/02/11 10:35:05;;;;;;;7.05;1.33;;;;;;;18.93;47.25;102989.31;5114433;28;20031;-65
2022/02/11 10:37:30;;;;;;;6.88;1.65;;;;;;;18.93;47.87;102991.94;5114670;28;20099;-64
2022/02/11 10:39:57;;;;;;;9.20;1.70;;;;;;;18.94;47.91;103000.72;5114944;28;20138;-64
2022/02/11 10:42:44;;;;;;;10.05;1.73;;;;;;;18.92;48.26;103002.59;5114029;28;20073;-64
2022/02/11 10:45:26;;;;;;;9.20;1.90;;;;;;;18.91;48.48;103014.94;5114835;28;20024;-64
2022/02/11 10:48:11;;;;;;;6.03;1.60;;;;;;;18.90;48.38;103007.97;5115213;28;20031;-64
2022/02/11 10:50:38;;;;;;;7.57;1.65;;;;;;;18.90;48.50;103015.88;5113986;28;20058;-64
2022/02/11 10:53:03;;;;;;;8.90;1.45;;;;;;;18.90;48.44;103023.81;5115021;28;20019;-64
2022/02/11 10:55:29;;;;;;;7.63;1.90;;;;;;;18.89;48.68;103030.03;5114549;28;20038;-65
2022/02/11 10:57:59;;;;;;;8.32;1.70;;;;;;;18.89;49.02;103024.72;5114117;28;20479;-65
2022/02/11 11:00:24;;;;;;;9.02;1.77;;;;;;;18.89;49.34;103024.72;5114590;28;20032;-65
2022/02/11 11:02:50;;;;;;;6.78;1.83;;;;;;;18.89;49.22;103030.03;5114878;28;20035;-66
2022/02/11 11:05:15;;;;;;;6.83;1.70;;;;;;;18.88;48.82;103030.94;5113675;28;20444;-63
2022/02/11 11:07:43;;;;;;;7.95;1.88;;;;;;;18.88;48.10;103032.72;5114592;28;20263;-65
2022/02/11 11:10:11;;;;;;;10.50;2.03;;;;;;;18.85;46.79;103036.41;5113559;28;20103;-66
2022/02/11 11:12:42;;;;;;;8.70;1.83;;;;;;;18.84;47.22;103040.81;5114434;27;20051;-65
2022/02/11 11:15:08;;;;;;;7.50;1.95;;;;;;;18.85;47.63;103039.03;5114502;28;20042;-65
2022/02/11 11:17:37;;;;;;;6.40;1.73;;;;;;;18.87;48.14;103054.78;5113421;28;20031;-65
2022/02/11 11:20:04;;;;;;;7.75;1.60;;;;;;;18.86;48.25;103056.59;5113441;28;20023;-65
2022/02/11 11:22:37;;;;;;;6.35;1.50;;;;;;;18.87;48.81;103060.06;5113935;28;20020;-65
2022/02/11 11:25:05;;;;;;;8.17;1.77;;;;;;;18.86;48.88;103061.88;5113586;28;20372;-65
2022/02/11 11:27:43;;;;;;;9.88;1.80;;;;;;;18.85;46.62;103060.19;5113934;28;20106;-62
2022/02/11 11:30:31;;;;;;;11.80;1.77;;;;;;;18.83;46.42;103062.88;5113791;28;20479;-65
2022/02/11 11:33:05;;;;;;;9.50;1.50;;;;;;;18.83;47.76;103064.63;5113591;28;20031;-65
2022/02/11 11:35:34;;;;;;;7.53;1.75;;;;;;;18.84;47.78;103063.75;5113691;28;20356;-65
2022/02/11 11:38:13;;;;;;;8.02;1.80;;;;;;;18.83;46.64;103060.22;5113666;28;20023;-66
2022/02/11 11:40:53;;;;;;;8.30;1.77;;;;;;;18.86;47.34;103061.88;5113737;28;20035;-65
2022/02/11 11:43:34;;;;;;;6.85;1.80;;;;;;;18.87;47.69;103060.06;5113851;28;20023;-65
2022/02/11 11:46:23;;;;;;;7.47;1.80;;;;;;;18.88;48.04;103070.56;5113217;28;20031;-65
2022/02/11 11:48:59;;;;;;;6.65;1.40;;;;;;;18.89;48.48;103060.88;5114061;28;20065;-64
2022/02/11 11:51:26;;;;;;;6.15;1.33;;;;;;;18.89;48.51;103060.88;5113372;28;20171;-64
2022/02/11 11:54:26;;;;;;;8.77;1.65;;;;;;;18.90;48.13;103067.84;5113094;28;20072;-65
2022/02/11 11:57:04;;;;;;;6.28;1.63;;;;;;;18.95;47.89;103069.34;5114604;28;20467;-67
2022/02/11 11:59:36;;;;;;;7.88;1.85;;;;;;;19.06;47.84;103082.03;5113117;28;20048;-65
2022/02/11 12:02:27;;;;;;;8.95;2.20;;;;;;;19.16;47.87;103085.91;5114415;28;20031;-65
2022/02/11 12:04:54;;;;;;;6.45;1.70;;;;;;;19.27;47.37;103084.53;5113897;28;20030;-68
2022/02/11 12:07:33;;;;;;;8.70;1.65;;;;;;;19.35;46.74;103090.28;5113520;28;20024;-67
2022/02/11 12:10:01;;;;;;;9.45;2.10;;;;;;;19.39;44.14;103095.31;5115246;28;20118;-67
2022/02/11 12:12:29;;;;;;;6.78;1.65;;;;;;;19.45;45.33;103103.88;5114937;28;20085;-69
2022/02/11 12:15:03;;;;;;;7.72;1.90;;;;;;;19.51;43.63;103104.41;5113233;28;20031;-66
2022/02/11 12:17:28;;;;;;;;;;;;;;;19.55;44.60;103111.25;5112968;28;20074;-65
2022/02/11 12:19:54;;;;;;;10.10;1.88;;;;;;;19.58;45.42;103116.41;5113541;28;19916;-62
2022/02/11 12:22:22;;;;;;;10.00;1.90;;;;;;;19.56;46.40;103106.81;5112194;28;20370;-63
2022/02/11 12:27:39;;;;;;;6.57;1.50;;;;;;;19.45;46.79;103101.22;5112530;28;20059;-63
2022/02/11 12:30:27;;;;;;;5.63;1.50;;;;;;;19.42;47.20;103114.59;5112986;28;20123;-64
2022/02/11 12:32:57;;;;;;;9.75;1.80;;;;;;;19.39;47.52;103112.97;5113239;28;20028;-65
2022/02/11 12:35:31;;;;;;;10.30;1.80;;;;;;;19.30;45.09;103110.81;5111782;28;20479;-65
2022/02/11 12:38:00;;;;;;;8.18;1.63;;;;;;;19.27;46.10;103105.69;5112843;28;20118;-65
2022/02/11 12:40:30;;;;;;;7.35;1.55;;;;;;;19.26;47.02;103117.16;5112683;28;20061;-65
2022/02/11 12:43:07;;;;;;;10.82;1.85;;;;;;;19.25;47.25;103116.31;5112400;28;20114;-65
2022/02/11 12:45:36;;;;;;;5.05;1.40;;;;;;;19.22;47.22;103111.19;5112924;28;20059;-62
2022/02/11 12:48:04;;;;;;;9.30;1.60;;;;;;;19.24;46.58;103126.97;5112871;28;20532;-63
2022/02/11 12:50:38;;;;;;;11.77;1.77;;;;;;;19.24;46.56;103113.75;5111683;28;20027;-63
2022/02/11 12:53:06;;;;;;;7.75;1.83;;;;;;;19.24;46.64;103119.03;5112937;28;20495;-63
2022/02/11 12:55:36;;;;;;;9.63;2.25;;;;;;;19.23;47.11;103115.53;5112643;28;20085;-63
2022/02/11 12:58:03;;;;;;;5.25;1.90;;;;;;;19.24;46.78;103113.75;5113058;28;20032;-64
2022/02/11 13:00:31;;;;;;;6.72;1.60;;;;;;;19.25;46.44;103118.09;5112615;28;20032;-65
2022/02/11 13:02:58;;;;;;;8.25;1.95;;;;;;;19.27;45.93;103118.91;5112640;28;20031;-66
2022/02/11 13:05:26;;;;;;;8.07;1.95;;;;;;;19.40;46.11;103112.88;5113060;28;20024;-67
2022/02/11 13:07:53;;;;;;;9.93;2.20;;;;;;;19.52;45.63;103124.63;5113517;28;20015;-67
2022/02/11 13:10:23;;;;;;;10.15;1.98;;;;;;;19.60;43.30;103126.03;5112270;28;20032;-65
2022/02/11 13:12:57;;;;;;;8.45;2.00;;;;;;;19.65;44.85;103121.38;5112980;28;20554;-63
2022/02/11 13:15:29;;;;;;;9.68;2.13;;;;;;;19.73;43.77;103127.13;5112329;28;20111;-65
2022/02/11 13:18:07;;;;;;;9.45;2.22;;;;;;;19.78;44.06;103127.75;5112158;28;20027;-64
2022/02/11 13:20:38;;;;;;;9.52;1.80;;;;;;;19.82;43.99;103126.66;5112606;28;20023;-65
2022/02/11 13:23:03;;;;;;;11.88;2.22;;;;;;;19.87;43.66;103129.06;5113567;28;20030;-64
2022/02/11 13:25:32;;;;;;;7.50;2.00;;;;;;;19.87;42.08;103137.84;5111549;28;20023;-65
2022/02/11 13:28:11;;;;;;;9.63;1.63;;;;;;;19.84;41.81;103134.53;5112613;28;20129;-67
2022/02/11 13:30:45;;;;;;;6.95;1.77;;;;;;;19.84;43.07;103129.22;5112526;28;20042;-68
2022/02/11 13:33:31;;;;;;;9.43;2.03;;;;;;;19.85;43.55;103131.81;5112301;28;20019;-68
2022/02/11 13:36:23;;;;;;;7.45;1.98;;;;;;;19.82;44.18;103141.66;5112531;28;20410;-68
2022/02/11 13:38:49;;;;;;;5.93;1.40;;;;;;;19.83;44.32;103143.38;5101462;28;20044;-66
2022/02/11 13:41:16;;;;;;;7.75;1.60;;;;;;;19.80;44.72;103135.59;5112276;28;20417;-67
2022/02/11 13:43:45;;;;;;;8.07;2.05;;;;;;;19.79;44.06;103141.81;5115962;28;20035;-67
2022/02/11 13:46:10;;;;;;;6.90;1.45;;;;;;;19.86;44.08;103138.78;5115193;28;20020;-67
2022/02/11 13:48:51;;;;;;;5.75;1.58;;;;;;;19.92;43.59;103134.97;5116137;28;20042;-64
2022/02/11 13:51:19;;;;;;;7.13;1.67;;;;;;;19.97;43.37;103137.38;5115891;28;20487;-67
2022/02/11 13:53:52;;;;;;;6.38;1.70;;;;;;;20.04;43.23;103146.69;5115520;28;20080;-67
2022/02/11 13:56:37;;;;;;;7.20;1.48;;;;;;;20.09;42.92;103145.50;5116032;28;20020;-66
2022/02/11 13:59:13;;;;;;;7.22;1.55;;;;;;;20.14;43.07;103145.28;5115232;28;20538;-67
2022/02/11 14:01:44;;;;;;;6.55;1.70;;;;;;;20.22;43.22;103153.66;5115817;28;20027;-67
2022/02/11 14:04:12;;;;;;;6.35;1.45;;;;;;;20.28;43.30;103161.25;5115772;28;20027;-66
2022/02/11 14:06:53;;;;;;;6.20;1.30;;;;;;;20.36;43.11;103157.31;5115134;28;20016;-66
2022/02/11 14:09:36;;;;;;;8.93;1.90;;;;;;;20.39;43.18;103165.94;5115876;28;20115;-67
2022/02/11 14:12:05;;;;;;;6.10;1.40;;;;;;;20.42;43.44;103155.19;5115999;28;20043;-67
2022/02/11 14:14:32;;;;;;;7.97;1.85;;;;;;;20.44;43.45;103149.81;5114453;27;20474;-66
2022/02/11 14:17:02;;;;;;;6.90;1.60;;;;;;;20.46;43.38;103155.91;5115772;28;20043;-67
2022/02/11 14:19:28;;;;;;;6.18;1.50;;;;;;;20.47;43.06;103160.25;5115188;28;20032;-66
2022/02/11 14:21:55;;;;;;;6.43;1.40;;;;;;;20.49;43.31;103166.34;5114717;28;20058;-68
2022/02/11 14:24:22;;;;;;;8.90;1.80;;;;;;;20.50;43.29;103161.88;5115143;28;20041;-67
2022/02/11 14:26:48;;;;;;;6.38;1.25;;;;;;;20.47;43.50;103168.19;5115624;28;20043;-65
2022/02/11 14:29:17;;;;;;;6.45;1.50;;;;;;;20.49;43.65;103163.69;5114739;28;20050;-67
2022/02/11 14:31:44;;;;;;;5.53;1.23;;;;;;;20.49;43.66;103161.03;5115482;28;20026;-64
2022/02/11 14:34:10;;;;;;;7.68;1.55;;;;;;;20.45;43.91;103170.91;5114375;28;20034;-66
2022/02/11 14:36:38;;;;;;;7.28;1.50;;;;;;;20.43;43.77;103159.56;5115254;28;20031;-64
2022/02/11 14:39:04;;;;;;;6.93;1.80;;;;;;;20.40;44.05;103169.47;5114972;28;20039;-67
2022/02/11 14:44:36;;;;;;;6.10;1.33;;;;;;;20.34;44.23;103170.66;5072440;28;20432;-66
2022/02/11 14:47:08;;;;;;;5.32;1.23;;;;;;;20.37;44.29;103180.22;5072489;28;20033;-67
2022/02/11 14:49:34;;;;;;;8.27;1.60;;;;;;;20.35;44.38;103171.53;5094249;28;20377;-66
2022/02/11 14:52:03;;;;;;;7.65;1.33;;;;;;;20.32;44.11;103172.53;5115410;28;20080;-66
2022/02/11 14:54:31;;;;;;;6.30;1.45;;;;;;;20.31;44.12;103181.41;5114401;28;20036;-66
2022/02/11 14:56:56;;;;;;;7.40;1.50;;;;;;;20.22;44.02;103179.25;5114388;28;20429;-66
2022/02/11 14:59:23;;;;;;;6.20;1.25;;;;;;;20.16;44.04;103182.25;5114562;27;20023;-66
2022/02/11 15:01:49;;;;;;;8.60;1.50;;;;;;;20.08;44.08;103185.31;5114923;28;20024;-66
2022/02/11 15:04:15;;;;;;;6.45;1.55;;;;;;;20.05;44.05;103193.41;5114061;28;20102;-68
2022/02/11 15:06:41;;;;;;;6.18;1.60;;;;;;;20.00;44.04;103198.09;5114917;28;20104;-66
2022/02/11 15:09:07;;;;;;;4.85;1.35;;;;;;;19.93;43.69;103198.41;5115005;28;20084;-69
2022/02/11 15:11:36;;;;;;;6.60;1.10;;;;;;;19.89;44.20;103199.47;5114448;28;20080;-68
2022/02/11 15:14:01;;;;;;;5.45;1.40;;;;;;;19.85;43.19;103202.38;5115102;28;20027;-64
2022/02/11 15:16:29;;;;;;;7.25;1.40;;;;;;;19.77;43.66;103201.91;5113315;28;20084;-67
2022/02/11 15:18:55;;;;;;;6.50;1.38;;;;;;;19.71;43.36;103211.84;5114596;28;20027;-67
2022/02/11 15:21:23;;;;;;;7.13;1.58;;;;;;;19.64;43.68;103207.78;5114172;28;20023;-67